sensor_id;sensor_type;location;lat;lon;timestamp;temperature;humidity
21787;DHT22;11055;50.870;4.316;2024-02-14T00:00:18;9.60;99.90
21787;DHT22;11055;50.870;4.316;2024-02-14T00:02:44;9.60;99.90
21787;DHT22;11055;50.870;4.316;2024-02-14T00:05:11;9.60;99.90
21787;DHT22;11055;50.870;4.316;2024-02-14T00:07:37;9.60;99.90
21787;DHT22;11055;50.870;4.316;2024-02-14T00:10:03;9.60;99.90
21787;DHT22;11055;50.870;4.316;2024-02-14T00:12:32;9.60;99.90
21787;DHT22;11055;50.870;4.316;2024-02-14T00:14:58;9.70;99.90
21787;DHT22;11055;50.870;4.316;2024-02-14T00:17:23;9.70;99.90
21787;DHT22;11055;50.870;4.316;2024-02-14T00:19:50;9.70;99.90
21787;DHT22;11055;50.870;4.316;2024-02-14T00:22:16;9.70;99.90
21787;DHT22;11055;50.870;4.316;2024-02-14T00:24:42;9.80;99.90
21787;DHT22;11055;50.870;4.316;2024-02-14T00:27:07;9.80;99.90
21787;DHT22;11055;50.870;4.316;2024-02-14T00:29:33;9.90;99.90
21787;DHT22;11055;50.870;4.316;2024-02-14T00:32:01;9.90;99.90
21787;DHT22;11055;50.870;4.316;2024-02-14T00:34:27;9.90;99.90
21787;DHT22;11055;50.870;4.316;2024-02-14T00:36:53;9.90;99.90
21787;DHT22;11055;50.870;4.316;2024-02-14T00:39:18;10.00;99.90
21787;DHT22;11055;50.870;4.316;2024-02-14T00:41:46;9.90;99.90
21787;DHT22;11055;50.870;4.316;2024-02-14T00:44:13;10.00;99.90
21787;DHT22;11055;50.870;4.316;2024-02-14T00:46:42;10.00;99.90
21787;DHT22;11055;50.870;4.316;2024-02-14T00:49:08;9.90;99.90
21787;DHT22;11055;50.870;4.316;2024-02-14T00:51:35;9.80;99.90
21787;DHT22;11055;50.870;4.316;2024-02-14T00:54:03;9.70;99.90
21787;DHT22;11055;50.870;4.316;2024-02-14T00:56:29;9.70;99.90
21787;DHT22;11055;50.870;4.316;2024-02-14T00:58:54;9.80;99.90
21787;DHT22;11055;50.870;4.316;2024-02-14T01:01:21;9.80;99.90
21787;DHT22;11055;50.870;4.316;2024-02-14T01:03:47;9.80;99.90
21787;DHT22;11055;50.870;4.316;2024-02-14T01:06:12;9.90;99.90
21787;DHT22;11055;50.870;4.316;2024-02-14T01:08:40;9.80;99.90
21787;DHT22;11055;50.870;4.316;2024-02-14T01:11:07;9.80;99.90
21787;DHT22;11055;50.870;4.316;2024-02-14T01:13:33;9.80;99.90
21787;DHT22;11055;50.870;4.316;2024-02-14T01:15:58;9.80;99.90
21787;DHT22;11055;50.870;4.316;2024-02-14T01:18:24;9.70;99.90
21787;DHT22;11055;50.870;4.316;2024-02-14T01:20:50;9.70;99.90
21787;DHT22;11055;50.870;4.316;2024-02-14T01:23:16;9.70;99.90
21787;DHT22;11055;50.870;4.316;2024-02-14T01:25:41;9.80;99.90
21787;DHT22;11055;50.870;4.316;2024-02-14T01:28:08;9.80;99.90
21787;DHT22;11055;50.870;4.316;2024-02-14T01:30:34;9.80;99.90
21787;DHT22;11055;50.870;4.316;2024-02-14T01:33:01;9.70;99.90
21787;DHT22;11055;50.870;4.316;2024-02-14T01:35:29;9.70;99.90
21787;DHT22;11055;50.870;4.316;2024-02-14T01:37:55;9.60;99.90
21787;DHT22;11055;50.870;4.316;2024-02-14T01:40:21;9.70;99.90
21787;DHT22;11055;50.870;4.316;2024-02-14T01:42:47;9.70;99.90
21787;DHT22;11055;50.870;4.316;2024-02-14T01:45:13;9.70;99.90
21787;DHT22;11055;50.870;4.316;2024-02-14T01:47:38;9.70;99.90
21787;DHT22;11055;50.870;4.316;2024-02-14T01:50:08;9.60;99.90
21787;DHT22;11055;50.870;4.316;2024-02-14T01:52:39;9.70;99.90
21787;DHT22;11055;50.870;4.316;2024-02-14T01:55:07;9.70;99.90
21787;DHT22;11055;50.870;4.316;2024-02-14T01:57:34;9.60;99.90
21787;DHT22;11055;50.870;4.316;2024-02-14T02:00:03;9.60;99.90
21787;DHT22;11055;50.870;4.316;2024-02-14T02:02:34;9.60;99.90
21787;DHT22;11055;50.870;4.316;2024-02-14T02:05:02;9.70;99.90
21787;DHT22;11055;50.870;4.316;2024-02-14T02:07:28;9.70;99.90
21787;DHT22;11055;50.870;4.316;2024-02-14T02:09:54;9.80;99.90
21787;DHT22;11055;50.870;4.316;2024-02-14T02:12:20;9.80;99.90
21787;DHT22;11055;50.870;4.316;2024-02-14T02:14:45;9.80;99.90
21787;DHT22;11055;50.870;4.316;2024-02-14T02:17:11;9.80;99.90
21787;DHT22;11055;50.870;4.316;2024-02-14T02:19:37;9.70;99.90
21787;DHT22;11055;50.870;4.316;2024-02-14T02:22:04;9.70;99.90
21787;DHT22;11055;50.870;4.316;2024-02-14T02:24:30;9.80;99.90
21787;DHT22;11055;50.870;4.316;2024-02-14T02:26:56;9.80;99.90
21787;DHT22;11055;50.870;4.316;2024-02-14T02:29:22;9.70;99.90
21787;DHT22;11055;50.870;4.316;2024-02-14T02:31:48;9.70;99.90
21787;DHT22;11055;50.870;4.316;2024-02-14T02:34:13;9.80;99.90
21787;DHT22;11055;50.870;4.316;2024-02-14T02:36:40;9.90;99.90
21787;DHT22;11055;50.870;4.316;2024-02-14T02:39:06;10.00;99.90
21787;DHT22;11055;50.870;4.316;2024-02-14T02:41:33;10.00;99.90
21787;DHT22;11055;50.870;4.316;2024-02-14T02:43:58;10.00;99.90
21787;DHT22;11055;50.870;4.316;2024-02-14T02:46:25;10.00;99.90
21787;DHT22;11055;50.870;4.316;2024-02-14T02:48:51;10.10;99.90
21787;DHT22;11055;50.870;4.316;2024-02-14T02:51:20;10.10;99.90
21787;DHT22;11055;50.870;4.316;2024-02-14T02:53:46;10.10;99.90
21787;DHT22;11055;50.870;4.316;2024-02-14T02:56:12;10.10;99.90
21787;DHT22;11055;50.870;4.316;2024-02-14T02:58:38;10.10;99.90
21787;DHT22;11055;50.870;4.316;2024-02-14T03:01:08;10.10;99.90
21787;DHT22;11055;50.870;4.316;2024-02-14T03:03:34;10.10;99.90
21787;DHT22;11055;50.870;4.316;2024-02-14T03:06:03;10.20;99.90
21787;DHT22;11055;50.870;4.316;2024-02-14T03:08:29;10.20;99.90
21787;DHT22;11055;50.870;4.316;2024-02-14T03:10:56;10.30;99.90
21787;DHT22;11055;50.870;4.316;2024-02-14T03:13:25;10.30;99.90
21787;DHT22;11055;50.870;4.316;2024-02-14T03:15:52;10.20;99.90
21787;DHT22;11055;50.870;4.316;2024-02-14T03:18:18;10.20;99.90
21787;DHT22;11055;50.870;4.316;2024-02-14T03:20:43;10.20;99.90
21787;DHT22;11055;50.870;4.316;2024-02-14T03:23:09;10.20;99.90
21787;DHT22;11055;50.870;4.316;2024-02-14T03:25:35;10.30;99.90
21787;DHT22;11055;50.870;4.316;2024-02-14T03:28:03;10.20;99.90
21787;DHT22;11055;50.870;4.316;2024-02-14T03:30:37;10.20;99.90
21787;DHT22;11055;50.870;4.316;2024-02-14T03:33:05;10.20;99.90
21787;DHT22;11055;50.870;4.316;2024-02-14T03:35:31;10.20;99.90
21787;DHT22;11055;50.870;4.316;2024-02-14T03:37:56;10.30;99.90
21787;DHT22;11055;50.870;4.316;2024-02-14T03:40:22;10.30;99.90
21787;DHT22;11055;50.870;4.316;2024-02-14T03:42:48;10.30;99.90
21787;DHT22;11055;50.870;4.316;2024-02-14T03:45:14;10.40;99.90
21787;DHT22;11055;50.870;4.316;2024-02-14T03:47:40;10.40;99.90
21787;DHT22;11055;50.870;4.316;2024-02-14T03:50:07;10.40;99.90
21787;DHT22;11055;50.870;4.316;2024-02-14T03:52:33;10.30;99.90
21787;DHT22;11055;50.870;4.316;2024-02-14T03:55:00;10.30;99.90
21787;DHT22;11055;50.870;4.316;2024-02-14T03:57:26;10.30;99.90
21787;DHT22;11055;50.870;4.316;2024-02-14T03:59:57;10.30;99.90
21787;DHT22;11055;50.870;4.316;2024-02-14T04:02:23;10.30;99.90
21787;DHT22;11055;50.870;4.316;2024-02-14T04:04:48;10.30;99.90
21787;DHT22;11055;50.870;4.316;2024-02-14T04:07:14;10.30;99.90
21787;DHT22;11055;50.870;4.316;2024-02-14T04:09:40;10.30;99.90
21787;DHT22;11055;50.870;4.316;2024-02-14T04:12:05;10.20;99.90
21787;DHT22;11055;50.870;4.316;2024-02-14T04:14:31;10.20;99.90
21787;DHT22;11055;50.870;4.316;2024-02-14T04:16:57;10.20;99.90
21787;DHT22;11055;50.870;4.316;2024-02-14T04:19:23;10.20;99.90
21787;DHT22;11055;50.870;4.316;2024-02-14T04:21:48;10.20;99.90
21787;DHT22;11055;50.870;4.316;2024-02-14T04:24:14;10.20;99.90
21787;DHT22;11055;50.870;4.316;2024-02-14T04:26:40;10.30;99.90
21787;DHT22;11055;50.870;4.316;2024-02-14T04:29:05;10.20;99.90
21787;DHT22;11055;50.870;4.316;2024-02-14T04:31:33;10.30;99.90
21787;DHT22;11055;50.870;4.316;2024-02-14T04:33:58;10.30;99.90
21787;DHT22;11055;50.870;4.316;2024-02-14T04:36:24;10.30;99.90
21787;DHT22;11055;50.870;4.316;2024-02-14T04:38:50;10.30;99.90
21787;DHT22;11055;50.870;4.316;2024-02-14T04:41:17;10.30;99.90
21787;DHT22;11055;50.870;4.316;2024-02-14T04:43:43;10.40;99.90
21787;DHT22;11055;50.870;4.316;2024-02-14T04:46:09;10.30;99.90
21787;DHT22;11055;50.870;4.316;2024-02-14T04:48:35;10.40;99.90
21787;DHT22;11055;50.870;4.316;2024-02-14T04:51:02;10.40;99.90
21787;DHT22;11055;50.870;4.316;2024-02-14T04:53:28;10.40;99.90
21787;DHT22;11055;50.870;4.316;2024-02-14T04:55:54;10.40;99.90
21787;DHT22;11055;50.870;4.316;2024-02-14T04:58:20;10.40;99.90
21787;DHT22;11055;50.870;4.316;2024-02-14T05:00:46;10.50;99.90
21787;DHT22;11055;50.870;4.316;2024-02-14T05:03:12;10.40;99.90
21787;DHT22;11055;50.870;4.316;2024-02-14T05:05:38;10.40;99.90
21787;DHT22;11055;50.870;4.316;2024-02-14T05:08:04;10.40;99.90
21787;DHT22;11055;50.870;4.316;2024-02-14T05:10:30;10.40;99.90
21787;DHT22;11055;50.870;4.316;2024-02-14T05:12:57;10.40;99.90
21787;DHT22;11055;50.870;4.316;2024-02-14T05:15:22;10.50;99.90
21787;DHT22;11055;50.870;4.316;2024-02-14T05:17:49;10.50;99.90
21787;DHT22;11055;50.870;4.316;2024-02-14T05:20:16;10.50;99.90
21787;DHT22;11055;50.870;4.316;2024-02-14T05:22:42;10.50;99.90
21787;DHT22;11055;50.870;4.316;2024-02-14T05:25:08;10.50;99.90
21787;DHT22;11055;50.870;4.316;2024-02-14T05:27:37;10.50;99.90
21787;DHT22;11055;50.870;4.316;2024-02-14T05:30:04;10.50;99.90
21787;DHT22;11055;50.870;4.316;2024-02-14T05:32:35;10.60;99.90
21787;DHT22;11055;50.870;4.316;2024-02-14T05:35:00;10.50;99.90
21787;DHT22;11055;50.870;4.316;2024-02-14T05:37:27;10.50;99.90
21787;DHT22;11055;50.870;4.316;2024-02-14T05:39:53;10.60;99.90
21787;DHT22;11055;50.870;4.316;2024-02-14T05:42:19;10.60;99.90
21787;DHT22;11055;50.870;4.316;2024-02-14T05:44:45;10.70;99.90
21787;DHT22;11055;50.870;4.316;2024-02-14T05:47:10;10.70;99.90
21787;DHT22;11055;50.870;4.316;2024-02-14T05:49:41;10.80;99.90
21787;DHT22;11055;50.870;4.316;2024-02-14T05:52:07;10.80;99.90
21787;DHT22;11055;50.870;4.316;2024-02-14T05:54:33;10.70;99.90
21787;DHT22;11055;50.870;4.316;2024-02-14T05:56:59;10.70;99.90
21787;DHT22;11055;50.870;4.316;2024-02-14T05:59:25;10.80;99.90
21787;DHT22;11055;50.870;4.316;2024-02-14T06:01:50;10.80;99.90
21787;DHT22;11055;50.870;4.316;2024-02-14T06:04:16;10.80;99.90
21787;DHT22;11055;50.870;4.316;2024-02-14T06:06:42;10.80;99.90
21787;DHT22;11055;50.870;4.316;2024-02-14T06:09:07;10.80;99.90
21787;DHT22;11055;50.870;4.316;2024-02-14T06:11:37;10.80;99.90
21787;DHT22;11055;50.870;4.316;2024-02-14T06:14:05;10.80;99.90
21787;DHT22;11055;50.870;4.316;2024-02-14T06:16:32;10.80;99.90
21787;DHT22;11055;50.870;4.316;2024-02-14T06:18:57;10.80;99.90
21787;DHT22;11055;50.870;4.316;2024-02-14T06:21:23;10.90;99.90
21787;DHT22;11055;50.870;4.316;2024-02-14T06:23:49;10.90;99.90
21787;DHT22;11055;50.870;4.316;2024-02-14T06:26:14;11.00;99.90
21787;DHT22;11055;50.870;4.316;2024-02-14T06:28:40;11.00;99.90
21787;DHT22;11055;50.870;4.316;2024-02-14T06:31:05;11.10;99.90
21787;DHT22;11055;50.870;4.316;2024-02-14T06:33:31;11.10;99.90
21787;DHT22;11055;50.870;4.316;2024-02-14T06:35:57;11.10;99.90
21787;DHT22;11055;50.870;4.316;2024-02-14T06:38:22;11.10;99.90
21787;DHT22;11055;50.870;4.316;2024-02-14T06:40:49;11.10;99.90
21787;DHT22;11055;50.870;4.316;2024-02-14T06:43:15;11.20;99.90
21787;DHT22;11055;50.870;4.316;2024-02-14T06:45:40;11.30;99.90
21787;DHT22;11055;50.870;4.316;2024-02-14T06:48:07;11.30;99.90
21787;DHT22;11055;50.870;4.316;2024-02-14T06:50:34;11.20;99.90
21787;DHT22;11055;50.870;4.316;2024-02-14T06:53:00;11.20;99.90
21787;DHT22;11055;50.870;4.316;2024-02-14T06:55:28;11.20;99.90
21787;DHT22;11055;50.870;4.316;2024-02-14T06:57:57;11.30;99.90
21787;DHT22;11055;50.870;4.316;2024-02-14T07:00:23;11.20;99.90
21787;DHT22;11055;50.870;4.316;2024-02-14T07:02:48;11.20;99.90
21787;DHT22;11055;50.870;4.316;2024-02-14T07:05:14;11.20;99.90
21787;DHT22;11055;50.870;4.316;2024-02-14T07:07:41;11.40;99.90
21787;DHT22;11055;50.870;4.316;2024-02-14T07:10:07;11.50;99.90
21787;DHT22;11055;50.870;4.316;2024-02-14T07:12:33;11.50;99.90
21787;DHT22;11055;50.870;4.316;2024-02-14T07:14:59;11.30;99.90
21787;DHT22;11055;50.870;4.316;2024-02-14T07:17:26;11.30;99.90
21787;DHT22;11055;50.870;4.316;2024-02-14T07:19:52;11.30;99.90
21787;DHT22;11055;50.870;4.316;2024-02-14T07:22:17;11.20;99.90
21787;DHT22;11055;50.870;4.316;2024-02-14T07:24:44;11.20;99.90
21787;DHT22;11055;50.870;4.316;2024-02-14T07:27:12;11.20;99.90
21787;DHT22;11055;50.870;4.316;2024-02-14T07:29:38;11.20;99.90
21787;DHT22;11055;50.870;4.316;2024-02-14T07:32:04;11.20;99.90
21787;DHT22;11055;50.870;4.316;2024-02-14T07:34:30;11.20;99.90
21787;DHT22;11055;50.870;4.316;2024-02-14T07:36:55;11.20;99.90
21787;DHT22;11055;50.870;4.316;2024-02-14T07:39:21;11.30;99.90
21787;DHT22;11055;50.870;4.316;2024-02-14T07:41:47;11.30;99.90
21787;DHT22;11055;50.870;4.316;2024-02-14T07:44:13;11.40;99.90
21787;DHT22;11055;50.870;4.316;2024-02-14T07:46:39;11.50;99.90
21787;DHT22;11055;50.870;4.316;2024-02-14T07:49:04;11.60;99.90
21787;DHT22;11055;50.870;4.316;2024-02-14T07:51:32;11.60;99.90
21787;DHT22;11055;50.870;4.316;2024-02-14T07:54:04;11.60;99.90
21787;DHT22;11055;50.870;4.316;2024-02-14T07:56:30;11.60;99.90
21787;DHT22;11055;50.870;4.316;2024-02-14T07:58:56;11.70;99.90
21787;DHT22;11055;50.870;4.316;2024-02-14T08:01:22;11.70;99.90
21787;DHT22;11055;50.870;4.316;2024-02-14T08:03:47;11.60;99.90
21787;DHT22;11055;50.870;4.316;2024-02-14T08:06:14;11.60;99.90
21787;DHT22;11055;50.870;4.316;2024-02-14T08:08:39;11.70;99.90
21787;DHT22;11055;50.870;4.316;2024-02-14T08:11:05;11.60;99.90
21787;DHT22;11055;50.870;4.316;2024-02-14T08:13:31;11.60;99.90
21787;DHT22;11055;50.870;4.316;2024-02-14T08:15:57;11.60;99.90
21787;DHT22;11055;50.870;4.316;2024-02-14T08:18:24;11.70;99.90
21787;DHT22;11055;50.870;4.316;2024-02-14T08:20:49;11.70;99.90
21787;DHT22;11055;50.870;4.316;2024-02-14T08:23:15;11.80;99.90
21787;DHT22;11055;50.870;4.316;2024-02-14T08:25:42;11.80;99.90
21787;DHT22;11055;50.870;4.316;2024-02-14T08:28:09;11.80;99.90
21787;DHT22;11055;50.870;4.316;2024-02-14T08:30:34;11.80;99.90
21787;DHT22;11055;50.870;4.316;2024-02-14T08:33:00;11.80;99.90
21787;DHT22;11055;50.870;4.316;2024-02-14T08:35:26;11.90;99.90
21787;DHT22;11055;50.870;4.316;2024-02-14T08:37:51;11.90;99.90
21787;DHT22;11055;50.870;4.316;2024-02-14T08:40:17;11.80;99.90
21787;DHT22;11055;50.870;4.316;2024-02-14T08:42:43;11.70;99.90
21787;DHT22;11055;50.870;4.316;2024-02-14T08:45:09;11.80;99.90
21787;DHT22;11055;50.870;4.316;2024-02-14T08:47:36;11.80;99.90
21787;DHT22;11055;50.870;4.316;2024-02-14T08:50:03;11.70;99.90
21787;DHT22;11055;50.870;4.316;2024-02-14T08:52:29;11.70;99.90
21787;DHT22;11055;50.870;4.316;2024-02-14T08:54:54;11.70;99.90
21787;DHT22;11055;50.870;4.316;2024-02-14T08:57:20;11.80;99.90
21787;DHT22;11055;50.870;4.316;2024-02-14T08:59:46;11.90;99.90
21787;DHT22;11055;50.870;4.316;2024-02-14T09:02:13;11.90;99.90
21787;DHT22;11055;50.870;4.316;2024-02-14T09:04:39;12.00;99.90
21787;DHT22;11055;50.870;4.316;2024-02-14T09:07:07;12.00;99.90
21787;DHT22;11055;50.870;4.316;2024-02-14T09:09:33;12.10;99.90
21787;DHT22;11055;50.870;4.316;2024-02-14T09:11:59;12.20;99.90
21787;DHT22;11055;50.870;4.316;2024-02-14T09:14:31;12.20;99.90
21787;DHT22;11055;50.870;4.316;2024-02-14T09:16:57;12.20;99.90
21787;DHT22;11055;50.870;4.316;2024-02-14T09:19:23;12.10;99.90
21787;DHT22;11055;50.870;4.316;2024-02-14T09:21:50;12.10;99.90
21787;DHT22;11055;50.870;4.316;2024-02-14T09:24:16;12.30;99.90
21787;DHT22;11055;50.870;4.316;2024-02-14T09:26:42;12.40;99.90
21787;DHT22;11055;50.870;4.316;2024-02-14T09:29:08;12.30;99.90
21787;DHT22;11055;50.870;4.316;2024-02-14T09:31:36;12.20;99.90
21787;DHT22;11055;50.870;4.316;2024-02-14T09:34:02;12.20;99.90
21787;DHT22;11055;50.870;4.316;2024-02-14T09:36:28;12.40;99.90
21787;DHT22;11055;50.870;4.316;2024-02-14T09:38:54;12.30;99.90
21787;DHT22;11055;50.870;4.316;2024-02-14T09:41:31;12.30;99.90
21787;DHT22;11055;50.870;4.316;2024-02-14T09:44:00;12.30;99.90
21787;DHT22;11055;50.870;4.316;2024-02-14T09:46:25;12.20;99.90
21787;DHT22;11055;50.870;4.316;2024-02-14T09:48:52;12.20;99.90
21787;DHT22;11055;50.870;4.316;2024-02-14T09:51:18;12.30;99.90
21787;DHT22;11055;50.870;4.316;2024-02-14T09:53:44;12.20;99.90
21787;DHT22;11055;50.870;4.316;2024-02-14T09:56:11;12.20;99.90
21787;DHT22;11055;50.870;4.316;2024-02-14T09:58:37;12.20;99.90
21787;DHT22;11055;50.870;4.316;2024-02-14T10:01:04;12.20;99.90
21787;DHT22;11055;50.870;4.316;2024-02-14T10:03:30;12.40;99.90
21787;DHT22;11055;50.870;4.316;2024-02-14T10:05:56;12.50;99.90
21787;DHT22;11055;50.870;4.316;2024-02-14T10:08:22;12.40;99.90
21787;DHT22;11055;50.870;4.316;2024-02-14T10:10:49;12.30;99.90
21787;DHT22;11055;50.870;4.316;2024-02-14T10:13:15;12.30;99.90
21787;DHT22;11055;50.870;4.316;2024-02-14T10:15:41;12.40;99.90
21787;DHT22;11055;50.870;4.316;2024-02-14T10:18:07;12.40;99.90
21787;DHT22;11055;50.870;4.316;2024-02-14T10:20:35;12.40;99.90
21787;DHT22;11055;50.870;4.316;2024-02-14T10:23:07;12.40;99.90
21787;DHT22;11055;50.870;4.316;2024-02-14T10:25:36;12.40;99.90
21787;DHT22;11055;50.870;4.316;2024-02-14T10:28:07;12.40;99.90
21787;DHT22;11055;50.870;4.316;2024-02-14T10:30:37;12.40;99.90
21787;DHT22;11055;50.870;4.316;2024-02-14T10:33:06;12.30;99.90
21787;DHT22;11055;50.870;4.316;2024-02-14T10:35:33;12.30;99.90
21787;DHT22;11055;50.870;4.316;2024-02-14T10:38:02;12.30;99.90
21787;DHT22;11055;50.870;4.316;2024-02-14T10:40:28;12.30;99.90
21787;DHT22;11055;50.870;4.316;2024-02-14T10:42:55;12.30;99.90
21787;DHT22;11055;50.870;4.316;2024-02-14T10:45:24;12.40;99.90
21787;DHT22;11055;50.870;4.316;2024-02-14T10:47:51;12.50;99.90
21787;DHT22;11055;50.870;4.316;2024-02-14T10:50:21;12.40;99.90
21787;DHT22;11055;50.870;4.316;2024-02-14T10:52:48;12.40;99.90
21787;DHT22;11055;50.870;4.316;2024-02-14T10:55:16;12.40;99.90
21787;DHT22;11055;50.870;4.316;2024-02-14T10:57:46;12.50;99.90
21787;DHT22;11055;50.870;4.316;2024-02-14T11:00:14;12.50;99.90
21787;DHT22;11055;50.870;4.316;2024-02-14T11:02:42;12.60;99.90
21787;DHT22;11055;50.870;4.316;2024-02-14T11:05:16;12.60;99.90
21787;DHT22;11055;50.870;4.316;2024-02-14T11:07:46;12.60;99.90
21787;DHT22;11055;50.870;4.316;2024-02-14T11:10:19;12.70;99.90
21787;DHT22;11055;50.870;4.316;2024-02-14T11:12:47;12.60;99.90
21787;DHT22;11055;50.870;4.316;2024-02-14T11:15:20;12.60;99.90
21787;DHT22;11055;50.870;4.316;2024-02-14T11:17:47;12.50;99.90
21787;DHT22;11055;50.870;4.316;2024-02-14T11:20:32;12.60;99.90
21787;DHT22;11055;50.870;4.316;2024-02-14T11:23:02;12.60;99.90
21787;DHT22;11055;50.870;4.316;2024-02-14T11:25:34;12.60;99.90
21787;DHT22;11055;50.870;4.316;2024-02-14T11:28:24;12.60;99.90
21787;DHT22;11055;50.870;4.316;2024-02-14T11:30:48;12.60;99.90
21787;DHT22;11055;50.870;4.316;2024-02-14T11:33:22;12.40;99.90
21787;DHT22;11055;50.870;4.316;2024-02-14T11:35:52;12.50;99.90
21787;DHT22;11055;50.870;4.316;2024-02-14T11:38:23;12.50;99.90
21787;DHT22;11055;50.870;4.316;2024-02-14T11:40:54;12.60;99.90
21787;DHT22;11055;50.870;4.316;2024-02-14T11:43:23;12.70;99.90
21787;DHT22;11055;50.870;4.316;2024-02-14T11:45:50;12.70;99.90
21787;DHT22;11055;50.870;4.316;2024-02-14T11:48:18;12.70;99.90
21787;DHT22;11055;50.870;4.316;2024-02-14T11:50:44;12.80;99.90
21787;DHT22;11055;50.870;4.316;2024-02-14T11:53:11;12.80;99.90
21787;DHT22;11055;50.870;4.316;2024-02-14T11:55:37;12.80;99.90
21787;DHT22;11055;50.870;4.316;2024-02-14T11:58:14;12.80;99.90
21787;DHT22;11055;50.870;4.316;2024-02-14T12:00:42;12.80;99.90
21787;DHT22;11055;50.870;4.316;2024-02-14T12:03:29;12.90;99.90
21787;DHT22;11055;50.870;4.316;2024-02-14T12:05:55;13.00;99.90
21787;DHT22;11055;50.870;4.316;2024-02-14T12:08:22;12.90;99.90
21787;DHT22;11055;50.870;4.316;2024-02-14T12:10:48;13.00;99.90
21787;DHT22;11055;50.870;4.316;2024-02-14T12:13:26;13.10;99.90
21787;DHT22;11055;50.870;4.316;2024-02-14T12:15:51;13.20;99.90
21787;DHT22;11055;50.870;4.316;2024-02-14T12:18:18;13.20;99.90
21787;DHT22;11055;50.870;4.316;2024-02-14T12:20:44;13.20;99.90
21787;DHT22;11055;50.870;4.316;2024-02-14T12:23:17;13.20;99.90
21787;DHT22;11055;50.870;4.316;2024-02-14T12:25:43;13.20;99.90
21787;DHT22;11055;50.870;4.316;2024-02-14T12:28:16;13.30;99.90
21787;DHT22;11055;50.870;4.316;2024-02-14T12:30:46;13.20;99.90
21787;DHT22;11055;50.870;4.316;2024-02-14T12:33:15;13.10;99.90
21787;DHT22;11055;50.870;4.316;2024-02-14T12:35:43;13.10;99.90
21787;DHT22;11055;50.870;4.316;2024-02-14T12:38:10;13.10;99.90
21787;DHT22;11055;50.870;4.316;2024-02-14T12:40:37;13.10;99.90
21787;DHT22;11055;50.870;4.316;2024-02-14T12:43:03;13.10;99.90
21787;DHT22;11055;50.870;4.316;2024-02-14T12:45:29;13.20;99.90
21787;DHT22;11055;50.870;4.316;2024-02-14T12:47:54;13.10;99.90
21787;DHT22;11055;50.870;4.316;2024-02-14T12:50:20;13.20;99.90
21787;DHT22;11055;50.870;4.316;2024-02-14T12:52:46;13.20;99.90
21787;DHT22;11055;50.870;4.316;2024-02-14T12:55:14;13.30;99.90
21787;DHT22;11055;50.870;4.316;2024-02-14T12:57:40;13.30;99.90
21787;DHT22;11055;50.870;4.316;2024-02-14T13:00:06;13.20;99.90
21787;DHT22;11055;50.870;4.316;2024-02-14T13:02:34;13.20;99.90
21787;DHT22;11055;50.870;4.316;2024-02-14T13:05:00;13.20;99.90
21787;DHT22;11055;50.870;4.316;2024-02-14T13:07:27;13.10;99.90
21787;DHT22;11055;50.870;4.316;2024-02-14T13:09:53;13.10;99.90
21787;DHT22;11055;50.870;4.316;2024-02-14T13:12:20;13.10;99.90
21787;DHT22;11055;50.870;4.316;2024-02-14T13:14:46;13.10;99.90
21787;DHT22;11055;50.870;4.316;2024-02-14T13:17:12;13.10;99.90
21787;DHT22;11055;50.870;4.316;2024-02-14T13:19:38;13.10;99.90
21787;DHT22;11055;50.870;4.316;2024-02-14T13:22:05;13.00;99.90
21787;DHT22;11055;50.870;4.316;2024-02-14T13:24:31;13.00;99.90
21787;DHT22;11055;50.870;4.316;2024-02-14T13:26:57;13.10;99.90
21787;DHT22;11055;50.870;4.316;2024-02-14T13:29:25;13.10;99.90
21787;DHT22;11055;50.870;4.316;2024-02-14T13:31:51;13.00;99.90
21787;DHT22;11055;50.870;4.316;2024-02-14T13:34:17;13.00;99.90
21787;DHT22;11055;50.870;4.316;2024-02-14T13:36:46;13.10;99.90
21787;DHT22;11055;50.870;4.316;2024-02-14T13:39:13;13.00;99.90
21787;DHT22;11055;50.870;4.316;2024-02-14T13:41:41;13.10;99.90
21787;DHT22;11055;50.870;4.316;2024-02-14T13:44:09;13.00;99.90
21787;DHT22;11055;50.870;4.316;2024-02-14T13:46:38;13.10;99.90
21787;DHT22;11055;50.870;4.316;2024-02-14T13:49:08;13.10;99.90
21787;DHT22;11055;50.870;4.316;2024-02-14T13:51:36;13.10;99.90
21787;DHT22;11055;50.870;4.316;2024-02-14T13:54:02;13.10;99.90
21787;DHT22;11055;50.870;4.316;2024-02-14T13:56:27;13.10;99.90
21787;DHT22;11055;50.870;4.316;2024-02-14T13:58:53;13.20;99.90
21787;DHT22;11055;50.870;4.316;2024-02-14T14:01:19;13.20;99.90
21787;DHT22;11055;50.870;4.316;2024-02-14T14:03:45;13.10;99.90
21787;DHT22;11055;50.870;4.316;2024-02-14T14:06:11;13.10;99.90
21787;DHT22;11055;50.870;4.316;2024-02-14T14:08:37;13.10;99.90
21787;DHT22;11055;50.870;4.316;2024-02-14T14:11:03;13.10;99.90
21787;DHT22;11055;50.870;4.316;2024-02-14T14:13:29;13.10;99.90
21787;DHT22;11055;50.870;4.316;2024-02-14T14:15:57;13.20;99.90
21787;DHT22;11055;50.870;4.316;2024-02-14T14:18:22;13.10;99.90
21787;DHT22;11055;50.870;4.316;2024-02-14T14:20:49;13.20;99.90
21787;DHT22;11055;50.870;4.316;2024-02-14T14:23:14;13.20;99.90
21787;DHT22;11055;50.870;4.316;2024-02-14T14:25:41;13.30;99.90
21787;DHT22;11055;50.870;4.316;2024-02-14T14:28:07;13.30;99.90
21787;DHT22;11055;50.870;4.316;2024-02-14T14:30:37;13.40;99.90
21787;DHT22;11055;50.870;4.316;2024-02-14T14:33:04;13.30;99.90
21787;DHT22;11055;50.870;4.316;2024-02-14T14:35:30;13.30;99.90
21787;DHT22;11055;50.870;4.316;2024-02-14T14:37:59;13.40;99.90
21787;DHT22;11055;50.870;4.316;2024-02-14T14:40:25;13.40;99.90
21787;DHT22;11055;50.870;4.316;2024-02-14T14:42:52;13.40;99.90
21787;DHT22;11055;50.870;4.316;2024-02-14T14:45:19;13.40;99.90
21787;DHT22;11055;50.870;4.316;2024-02-14T14:47:45;13.40;99.90
21787;DHT22;11055;50.870;4.316;2024-02-14T14:50:11;13.40;99.90
21787;DHT22;11055;50.870;4.316;2024-02-14T14:52:41;13.40;99.90
21787;DHT22;11055;50.870;4.316;2024-02-14T14:55:09;13.40;99.90
21787;DHT22;11055;50.870;4.316;2024-02-14T14:57:35;13.40;99.90
21787;DHT22;11055;50.870;4.316;2024-02-14T15:00:07;13.50;99.90
21787;DHT22;11055;50.870;4.316;2024-02-14T15:02:33;13.50;99.90
21787;DHT22;11055;50.870;4.316;2024-02-14T15:04:58;13.50;99.90
21787;DHT22;11055;50.870;4.316;2024-02-14T15:07:24;13.50;99.90
21787;DHT22;11055;50.870;4.316;2024-02-14T15:09:50;13.40;99.90
21787;DHT22;11055;50.870;4.316;2024-02-14T15:12:16;13.40;99.90
21787;DHT22;11055;50.870;4.316;2024-02-14T15:14:41;13.40;99.90
21787;DHT22;11055;50.870;4.316;2024-02-14T15:17:07;13.40;99.90
21787;DHT22;11055;50.870;4.316;2024-02-14T15:19:32;13.40;99.90
21787;DHT22;11055;50.870;4.316;2024-02-14T15:21:58;13.40;99.90
21787;DHT22;11055;50.870;4.316;2024-02-14T15:24:28;13.40;99.90
21787;DHT22;11055;50.870;4.316;2024-02-14T15:26:54;13.40;99.90
21787;DHT22;11055;50.870;4.316;2024-02-14T15:29:25;13.50;99.90